SGCO/CIO METAR and TAF weather

Enter ICAO airport designator
Station Type Date Time Source
SGCO METAR 2023/02/05 12:00 UTC NOAA

SGCO 051200Z 00000KT CAVOK 24/22 Q1013


Station Type Date Time Source
SGCO Decoded METAR 2023/02/05 12:00 UTC NOAA

Concepcion, Paraguay (SGCO) 23-25S 057-18W 74M
Feb 05, 2023 - 07:00 AM EST / 2023.02.05 1200 UTC
Wind: Calm:0
Visibility: greater than 7 mile(s):0
Temperature: 75 F (24 C)
Dew Point: 71 F (22 C)
Relative Humidity: 88%
Pressure (altimeter): 29.91 in. Hg (1013 hPa)
ob: SGCO 051200Z 00000KT CAVOK 24/22 Q1013
cycle: 12

Station Type Date Time Source
SGCO TAF 2023/02/05 12:00 UTC NOAA

TAF SGCO 050930Z 0512/0612 00000KT CAVOK TX36/0519Z TN22/0609Z
BECMG 0517/0520 04008KT 9999 BKN033
BECMG 0523/0602 09005KT CAVOK

Example: see airport list